Time;durP1;ratioP1;P1;durP2;ratioP2;P2;SDS_P1;SDS_P2;PMS_P1;PMS_P2;Temp;Humidity;BMP_temperature;BMP_pressure;BME280_temperature;BME280_humidity;BME280_pressure;Samples;Min_cycle;Max_cycle;Signal;HPM_P1;HPM_P2
2021/12/26 00:00:46;;;;;;;6.72;4.13;;;;;;;;;;5000841;28;20086;-89
2021/12/26 00:03:12;;;;;;;7.53;3.65;;;;;;;;;;5001270;28;20049;-89
2021/12/26 00:05:39;;;;;;;7.22;3.97;;;;;;;;;;5000482;28;20048;-89
2021/12/26 00:08:08;;;;;;;6.30;3.55;;;;;;;;;;5001255;28;20041;-89
2021/12/26 00:10:34;;;;;;;8.23;4.05;;;;;;;;;;5000183;28;20049;-89
2021/12/26 00:13:00;;;;;;;4.00;3.28;;;;;;;;;;5000849;28;20046;-89
2021/12/26 00:15:26;;;;;;;6.53;4.20;;;;;;;;;;5001484;28;20056;-89
2021/12/26 00:17:52;;;;;;;7.28;3.80;;;;;;;;;;5016688;28;20042;-89
2021/12/26 00:20:20;;;;;;;4.85;3.40;;;;;;;;;;5017186;28;20046;-90
2021/12/26 00:22:47;;;;;;;3.60;3.25;;;;;;;;;;5000483;28;20397;-90
2021/12/26 00:25:13;;;;;;;5.72;3.55;;;;;;;;;;5000231;28;20050;-90
2021/12/26 00:27:40;;;;;;;8.05;3.90;;;;;;;;;;5000882;28;20375;-90
2021/12/26 00:30:08;;;;;;;4.60;3.40;;;;;;;;;;5017896;28;20041;-90
2021/12/26 00:32:34;;;;;;;6.40;3.40;;;;;;;;;;5002857;28;20049;-90
2021/12/26 00:35:00;;;;;;;5.03;2.97;;;;;;;;;;5000898;28;20049;-90
2021/12/26 00:37:27;;;;;;;4.63;3.42;;;;;;;;;;5001280;28;20103;-90
2021/12/26 00:39:54;;;;;;;6.13;3.30;;;;;;;;;;5001426;28;20272;-90
2021/12/26 00:42:20;;;;;;;6.45;3.40;;;;;;;;;;5001199;28;20470;-90
2021/12/26 00:44:46;;;;;;;5.40;3.47;;;;;;;;;;5002343;28;20402;-90
2021/12/26 00:47:14;;;;;;;6.38;3.72;;;;;;;;;;5002821;28;20057;-90
2021/12/26 00:49:40;;;;;;;4.18;2.70;;;;;;;;;;5002207;28;20072;-91
2021/12/26 00:52:07;;;;;;;3.50;2.67;;;;;;;;;;5002024;28;20060;-90
2021/12/26 00:54:33;;;;;;;3.30;2.75;;;;;;;;;;5001714;28;20045;-90
2021/12/26 00:56:59;;;;;;;2.97;2.55;;;;;;;;;;5001476;28;20050;-90
2021/12/26 00:59:26;;;;;;;3.85;2.90;;;;;;;;;;5017808;28;20102;-91
2021/12/26 01:01:52;;;;;;;4.38;2.75;;;;;;;;;;5000598;28;20519;-90
2021/12/26 01:04:34;;;;;;;3.65;2.55;;;;;;;;;;5000988;28;20449;-90
2021/12/26 01:07:07;;;;;;;4.20;2.60;;;;;;;;;;5000615;28;20053;-90
2021/12/26 01:09:35;;;;;;;5.43;3.08;;;;;;;;;;4996929;28;20045;-90
2021/12/26 01:12:11;;;;;;;7.47;3.95;;;;;;;;;;4997839;28;20085;-90
2021/12/26 01:14:45;;;;;;;3.47;2.90;;;;;;;;;;4997121;28;20045;-90
2021/12/26 01:17:15;;;;;;;5.05;2.92;;;;;;;;;;5014751;28;20128;-90
2021/12/26 01:19:48;;;;;;;2.70;2.33;;;;;;;;;;5000223;28;20080;-91
2021/12/26 01:22:15;;;;;;;6.07;2.65;;;;;;;;;;4999891;28;20049;-90
2021/12/26 01:24:48;;;;;;;3.88;3.00;;;;;;;;;;5000474;28;20112;-91
2021/12/26 01:27:14;;;;;;;4.40;2.58;;;;;;;;;;4996050;28;20585;-91
2021/12/26 01:29:41;;;;;;;7.43;3.03;;;;;;;;;;4996691;28;20054;-91
2021/12/26 01:32:07;;;;;;;6.72;2.92;;;;;;;;;;4996078;28;20050;-90
2021/12/26 01:34:33;;;;;;;6.93;3.63;;;;;;;;;;4995728;28;20129;-91
2021/12/26 01:37:00;;;;;;;2.90;2.63;;;;;;;;;;4995850;28;20061;-91
2021/12/26 01:39:26;;;;;;;3.72;2.55;;;;;;;;;;4995585;28;20499;-91
2021/12/26 01:41:53;;;;;;;3.67;2.65;;;;;;;;;;4996023;28;20411;-91
2021/12/26 01:44:19;;;;;;;3.58;3.22;;;;;;;;;;4996907;28;20046;-92
2021/12/26 01:46:47;;;;;;;4.75;3.30;;;;;;;;;;4995948;28;20054;-92
2021/12/26 01:49:17;;;;;;;2.60;2.38;;;;;;;;;;4999903;28;20042;-92
2021/12/26 01:52:06;;;;;;;4.60;2.70;;;;;;;;;;5001641;28;20391;-92
2021/12/26 01:58:17;;;;;;;5.28;2.97;;;;;;;;;;4874411;29;20049;-92
2021/12/26 02:06:39;;;;;;;4.47;2.55;;;;;;;;;;4979973;28;20135;-92
2021/12/26 02:11:34;;;;;;;4.55;2.80;;;;;;;;;;5318167;22;20057;-92
2021/12/26 02:14:00;;;;;;;2.95;2.53;;;;;;;;;;5023197;28;20049;-91
2021/12/26 02:16:26;;;;;;;4.13;2.83;;;;;;;;;;5022882;28;20084;-91
2021/12/26 02:18:52;;;;;;;4.40;2.70;;;;;;;;;;5024564;28;20053;-92
2021/12/26 02:25:06;;;;;;;;;;;;;;;;;;;;;
2021/12/26 02:29:53;;;;;;;6.15;3.42;;;;;;;;;;4960259;28;20082;-91
2021/12/26 02:32:19;;;;;;;2.72;2.38;;;;;;;;;;4961451;28;20522;-92
2021/12/26 02:34:45;;;;;;;4.10;2.25;;;;;;;;;;4925635;29;20049;-93
2021/12/26 02:37:11;;;;;;;2.85;2.33;;;;;;;;;;4925781;29;20460;-94
2021/12/26 02:39:38;;;;;;;4.10;2.40;;;;;;;;;;4926675;29;20095;-94
2021/12/26 02:42:04;;;;;;;3.70;3.17;;;;;;;;;;4926078;29;20086;-93
2021/12/26 02:44:30;;;;;;;3.60;2.10;;;;;;;;;;4925361;29;20051;-94
2021/12/26 02:46:56;;;;;;;13.13;2.38;;;;;;;;;;4925750;29;20059;-94
2021/12/26 02:49:23;;;;;;;5.85;2.53;;;;;;;;;;4926117;29;20186;-93
2021/12/26 02:51:49;;;;;;;3.42;2.10;;;;;;;;;;4925622;29;20070;-90
2021/12/26 02:54:16;;;;;;;3.15;2.10;;;;;;;;;;4942393;29;20079;-91
2021/12/26 02:56:42;;;;;;;3.03;2.00;;;;;;;;;;4922595;29;20555;-92
2021/12/26 02:59:08;;;;;;;3.38;2.20;;;;;;;;;;5014359;28;20508;-90
2021/12/26 03:01:34;;;;;;;3.03;2.35;;;;;;;;;;5003686;28;20049;-91
2021/12/26 03:04:08;;;;;;;4.15;1.90;;;;;;;;;;5002416;28;20052;-89
2021/12/26 03:06:47;;;;;;;3.47;2.28;;;;;;;;;;5002915;28;20135;-90
2021/12/26 03:09:13;;;;;;;3.53;1.80;;;;;;;;;;5018417;28;20053;-89
2021/12/26 03:11:39;;;;;;;3.33;2.15;;;;;;;;;;5023789;28;20437;-92
2021/12/26 03:14:06;;;;;;;7.68;2.55;;;;;;;;;;5003611;28;20107;-94
2021/12/26 03:16:33;;;;;;;3.67;2.17;;;;;;;;;;5018698;28;20056;-90
2021/12/26 03:18:59;;;;;;;3.00;1.90;;;;;;;;;;5018439;28;20500;-89
2021/12/26 03:21:25;;;;;;;3.55;2.40;;;;;;;;;;5003983;28;20045;-89
2021/12/26 03:23:51;;;;;;;4.78;2.95;;;;;;;;;;5019325;28;20048;-91
2021/12/26 03:26:18;;;;;;;3.17;1.85;;;;;;;;;;5004113;28;20048;-94
2021/12/26 03:28:44;;;;;;;1.60;1.50;;;;;;;;;;5002860;28;20135;-89
2021/12/26 03:31:10;;;;;;;4.28;1.85;;;;;;;;;;5002015;28;20615;-91
2021/12/26 03:33:36;;;;;;;2.53;1.98;;;;;;;;;;5001435;28;20038;-94
2021/12/26 03:36:03;;;;;;;3.90;2.28;;;;;;;;;;5017659;28;20133;-90
2021/12/26 03:38:29;;;;;;;2.88;2.15;;;;;;;;;;5001766;28;20041;-89
2021/12/26 03:40:56;;;;;;;2.33;1.73;;;;;;;;;;5001481;28;20136;-90
2021/12/26 03:43:22;;;;;;;2.30;1.95;;;;;;;;;;5001705;28;20045;-90
2021/12/26 03:45:50;;;;;;;2.47;1.98;;;;;;;;;;5017607;28;20051;-90
2021/12/26 03:48:17;;;;;;;2.47;1.95;;;;;;;;;;5001329;28;20041;-90
2021/12/26 03:50:44;;;;;;;4.40;2.00;;;;;;;;;;5001328;28;20049;-90
2021/12/26 03:53:11;;;;;;;2.03;1.75;;;;;;;;;;5002288;28;20053;-90
2021/12/26 03:55:37;;;;;;;3.00;2.00;;;;;;;;;;5001215;28;20045;-89
2021/12/26 03:58:04;;;;;;;6.65;1.90;;;;;;;;;;5017353;28;20042;-91
2021/12/26 04:00:30;;;;;;;2.83;1.95;;;;;;;;;;4993060;28;20207;-90
2021/12/26 04:02:56;;;;;;;3.30;2.35;;;;;;;;;;5001640;28;20493;-90
2021/12/26 04:05:26;;;;;;;2.42;2.00;;;;;;;;;;5000869;28;20049;-90
2021/12/26 04:07:52;;;;;;;4.93;1.90;;;;;;;;;;5001807;28;20525;-90
2021/12/26 04:10:19;;;;;;;2.20;2.00;;;;;;;;;;5000906;28;20156;-90
2021/12/26 04:12:48;;;;;;;1.58;1.48;;;;;;;;;;5000763;28;20053;-91
2021/12/26 04:15:15;;;;;;;1.73;1.63;;;;;;;;;;5001546;28;20512;-90
2021/12/26 04:17:41;;;;;;;2.53;2.22;;;;;;;;;;5000973;28;20041;-91
2021/12/26 04:20:08;;;;;;;2.60;1.92;;;;;;;;;;5000744;28;20056;-90
2021/12/26 04:22:34;;;;;;;2.90;1.92;;;;;;;;;;5001088;28;20045;-90
2021/12/26 04:25:00;;;;;;;5.18;2.45;;;;;;;;;;5000992;28;20041;-90
2021/12/26 04:27:26;;;;;;;2.53;1.60;;;;;;;;;;5001098;28;20045;-90
2021/12/26 04:29:53;;;;;;;4.85;2.30;;;;;;;;;;5000417;28;20047;-90
2021/12/26 04:32:19;;;;;;;4.38;2.20;;;;;;;;;;5000438;28;20045;-90
2021/12/26 04:34:45;;;;;;;4.13;2.10;;;;;;;;;;5016475;28;20037;-90
2021/12/26 04:37:11;;;;;;;4.60;2.30;;;;;;;;;;5016728;28;20049;-89
2021/12/26 04:39:37;;;;;;;2.25;1.90;;;;;;;;;;5000213;28;20053;-89
2021/12/26 04:42:04;;;;;;;2.55;1.70;;;;;;;;;;5016774;28;20429;-89
2021/12/26 04:44:30;;;;;;;3.65;1.83;;;;;;;;;;5000521;28;20045;-89
2021/12/26 04:46:56;;;;;;;3.67;2.53;;;;;;;;;;5000752;28;20053;-89
2021/12/26 04:49:22;;;;;;;4.28;1.90;;;;;;;;;;5000942;28;20052;-89
2021/12/26 04:51:48;;;;;;;3.03;2.10;;;;;;;;;;5000658;28;20049;-89
2021/12/26 04:54:14;;;;;;;1.98;1.63;;;;;;;;;;5017891;28;20474;-89
2021/12/26 04:56:40;;;;;;;2.60;1.60;;;;;;;;;;5000809;28;20089;-88
2021/12/26 04:59:07;;;;;;;4.32;2.65;;;;;;;;;;5000625;28;20038;-88
2021/12/26 05:01:33;;;;;;;3.60;2.05;;;;;;;;;;5016417;28;20516;-88
2021/12/26 05:03:59;;;;;;;4.25;2.70;;;;;;;;;;5016770;28;20131;-88
2021/12/26 05:06:27;;;;;;;2.08;1.88;;;;;;;;;;5000609;28;20054;-88
2021/12/26 05:08:53;;;;;;;2.75;2.20;;;;;;;;;;5016528;28;20046;-89
2021/12/26 05:11:19;;;;;;;2.88;2.10;;;;;;;;;;5000148;28;20070;-88
2021/12/26 05:13:46;;;;;;;3.28;1.58;;;;;;;;;;5000749;28;20060;-88
2021/12/26 05:16:12;;;;;;;3.25;2.58;;;;;;;;;;5000786;28;20172;-88
2021/12/26 05:18:38;;;;;;;2.88;2.03;;;;;;;;;;5000733;28;20077;-88
2021/12/26 05:21:04;;;;;;;5.05;2.17;;;;;;;;;;5001932;28;20044;-88
2021/12/26 05:23:30;;;;;;;6.63;2.10;;;;;;;;;;5004245;28;20099;-88
2021/12/26 05:25:56;;;;;;;2.17;1.92;;;;;;;;;;5005183;28;20053;-89
2021/12/26 05:28:22;;;;;;;2.45;1.77;;;;;;;;;;5004632;28;20045;-88
2021/12/26 05:30:48;;;;;;;2.65;1.80;;;;;;;;;;5004138;28;20050;-89
2021/12/26 05:33:15;;;;;;;3.95;1.98;;;;;;;;;;5005001;28;20049;-89
2021/12/26 05:35:41;;;;;;;3.15;2.10;;;;;;;;;;5004725;28;20050;-91
2021/12/26 05:38:08;;;;;;;2.38;1.58;;;;;;;;;;5004439;28;20068;-88
2021/12/26 05:40:34;;;;;;;3.70;2.47;;;;;;;;;;5004894;28;20519;-88
2021/12/26 05:43:00;;;;;;;5.80;2.00;;;;;;;;;;5004758;28;20405;-90
2021/12/26 05:45:26;;;;;;;2.42;1.80;;;;;;;;;;5021609;28;20124;-88
2021/12/26 05:47:52;;;;;;;3.50;2.45;;;;;;;;;;5021894;28;20033;-89
2021/12/26 05:50:19;;;;;;;2.72;2.05;;;;;;;;;;5004551;28;20049;-90
2021/12/26 05:52:45;;;;;;;3.30;2.17;;;;;;;;;;5004661;28;20081;-89
2021/12/26 05:55:12;;;;;;;6.97;2.28;;;;;;;;;;5020816;28;20052;-90
2021/12/26 05:57:38;;;;;;;5.45;2.22;;;;;;;;;;5020448;28;20042;-89
2021/12/26 06:00:06;;;;;;;5.90;2.60;;;;;;;;;;5038142;28;20109;-91
2021/12/26 06:02:32;;;;;;;4.57;2.75;;;;;;;;;;5020522;28;20088;-88
2021/12/26 06:04:58;;;;;;;3.42;2.13;;;;;;;;;;5021385;28;20099;-89
2021/12/26 06:07:24;;;;;;;2.88;2.22;;;;;;;;;;5003801;28;20084;-88
2021/12/26 06:09:50;;;;;;;4.25;2.25;;;;;;;;;;5002974;28;20551;-88
2021/12/26 06:12:16;;;;;;;3.20;2.03;;;;;;;;;;5002863;28;20499;-87
2021/12/26 06:14:42;;;;;;;3.00;1.90;;;;;;;;;;5003644;28;20107;-90
2021/12/26 06:17:09;;;;;;;6.18;2.70;;;;;;;;;;5002604;28;20048;-86
2021/12/26 06:19:35;;;;;;;5.10;2.17;;;;;;;;;;5002176;28;20038;-86
2021/12/26 06:22:02;;;;;;;7.47;2.35;;;;;;;;;;5001914;28;20095;-87
2021/12/26 06:24:29;;;;;;;2.50;2.17;;;;;;;;;;5002795;28;20045;-86
2021/12/26 06:26:55;;;;;;;3.25;2.08;;;;;;;;;;5003747;28;20382;-86
2021/12/26 06:29:21;;;;;;;4.15;2.58;;;;;;;;;;5019037;28;20564;-86
2021/12/26 06:31:47;;;;;;;8.18;3.42;;;;;;;;;;5019429;28;20057;-86
2021/12/26 06:34:13;;;;;;;4.05;2.50;;;;;;;;;;5035873;28;20125;-87
2021/12/26 06:36:39;;;;;;;3.88;2.10;;;;;;;;;;5022192;28;20045;-87
2021/12/26 06:39:06;;;;;;;3.70;2.33;;;;;;;;;;5022849;28;20421;-88
2021/12/26 06:41:33;;;;;;;6.90;3.10;;;;;;;;;;5023445;28;20132;-87
2021/12/26 06:43:59;;;;;;;4.15;2.40;;;;;;;;;;5044146;28;20406;-86
2021/12/26 06:46:25;;;;;;;4.25;2.92;;;;;;;;;;5041308;28;20105;-89
2021/12/26 06:48:54;;;;;;;8.18;2.88;;;;;;;;;;5006809;28;20433;-86
2021/12/26 06:51:20;;;;;;;2.80;2.25;;;;;;;;;;5021870;28;20752;-86
2021/12/26 06:53:46;;;;;;;3.33;2.38;;;;;;;;;;5036648;28;20051;-86
2021/12/26 06:56:12;;;;;;;6.65;3.28;;;;;;;;;;5018148;28;20049;-86
2021/12/26 06:58:38;;;;;;;4.22;2.70;;;;;;;;;;5018400;28;20049;-86
2021/12/26 07:01:04;;;;;;;2.97;2.58;;;;;;;;;;5002002;28;20132;-85
2021/12/26 07:03:30;;;;;;;3.13;2.50;;;;;;;;;;5001676;28;20112;-85
2021/12/26 07:05:56;;;;;;;3.33;2.63;;;;;;;;;;5002535;28;20052;-85
2021/12/26 07:08:22;;;;;;;4.95;2.65;;;;;;;;;;5002481;28;20124;-85
2021/12/26 07:10:48;;;;;;;2.72;2.42;;;;;;;;;;5002538;28;20061;-85
2021/12/26 07:13:15;;;;;;;4.32;2.28;;;;;;;;;;5002154;28;20107;-87
2021/12/26 07:15:41;;;;;;;5.18;2.67;;;;;;;;;;5002459;28;20140;-85
2021/12/26 07:18:07;;;;;;;4.00;2.35;;;;;;;;;;5002356;28;20493;-85
2021/12/26 07:20:34;;;;;;;3.63;2.58;;;;;;;;;;5019068;28;20045;-85
2021/12/26 07:23:00;;;;;;;4.43;2.53;;;;;;;;;;5003561;28;20109;-86
2021/12/26 07:25:26;;;;;;;3.65;2.20;;;;;;;;;;5018278;28;20121;-85
2021/12/26 07:27:52;;;;;;;3.78;2.90;;;;;;;;;;5018491;28;20053;-85
2021/12/26 07:30:18;;;;;;;3.53;2.40;;;;;;;;;;5018817;28;20421;-85
2021/12/26 07:32:44;;;;;;;3.05;2.42;;;;;;;;;;5036495;28;20041;-85
2021/12/26 07:35:10;;;;;;;5.00;2.20;;;;;;;;;;5002437;28;20056;-85
2021/12/26 07:37:37;;;;;;;5.50;3.22;;;;;;;;;;5036198;28;20044;-85
2021/12/26 07:40:04;;;;;;;11.40;4.03;;;;;;;;;;5018454;28;20120;-86
2021/12/26 07:42:30;;;;;;;6.65;4.15;;;;;;;;;;5035954;28;20051;-85
2021/12/26 07:44:56;;;;;;;3.58;2.55;;;;;;;;;;5034428;28;20474;-85
2021/12/26 07:47:23;;;;;;;7.45;3.17;;;;;;;;;;5002678;28;20042;-86
2021/12/26 07:49:49;;;;;;;3.75;2.58;;;;;;;;;;5036113;28;20037;-85
2021/12/26 07:52:19;;;;;;;5.70;2.95;;;;;;;;;;5018944;28;20111;-85
2021/12/26 07:54:45;;;;;;;3.08;2.63;;;;;;;;;;5036045;28;20049;-85
2021/12/26 07:57:12;;;;;;;6.20;2.85;;;;;;;;;;5017592;28;20497;-85
2021/12/26 07:59:38;;;;;;;4.88;3.47;;;;;;;;;;5001824;28;20050;-85
2021/12/26 08:02:04;;;;;;;4.40;3.15;;;;;;;;;;5017126;28;20124;-85
2021/12/26 08:04:30;;;;;;;7.35;5.00;;;;;;;;;;5034813;28;20091;-85
2021/12/26 08:06:58;;;;;;;6.55;4.53;;;;;;;;;;5000481;28;20049;-85
2021/12/26 08:09:24;;;;;;;11.23;5.70;;;;;;;;;;5001349;28;20099;-85
2021/12/26 08:11:51;;;;;;;7.40;5.43;;;;;;;;;;5016779;28;20057;-85
2021/12/26 08:14:17;;;;;;;6.38;4.65;;;;;;;;;;5000121;28;20099;-86
2021/12/26 08:16:43;;;;;;;5.65;3.35;;;;;;;;;;5016471;28;20049;-86
2021/12/26 08:19:09;;;;;;;5.13;4.30;;;;;;;;;;5000896;28;20041;-87
2021/12/26 08:21:35;;;;;;;4.60;3.50;;;;;;;;;;5001489;28;20124;-86
2021/12/26 08:24:02;;;;;;;4.40;3.03;;;;;;;;;;5034646;28;20045;-87
2021/12/26 08:26:28;;;;;;;4.63;3.00;;;;;;;;;;5033969;28;20478;-86
2021/12/26 08:28:54;;;;;;;4.68;3.05;;;;;;;;;;5000753;28;20047;-85
2021/12/26 08:31:22;;;;;;;4.68;2.95;;;;;;;;;;5001857;28;20108;-86
2021/12/26 08:33:48;;;;;;;2.75;2.53;;;;;;;;;;5034925;28;20049;-85
2021/12/26 08:36:18;;;;;;;4.30;2.78;;;;;;;;;;5018221;28;20447;-86
2021/12/26 08:38:44;;;;;;;3.40;2.67;;;;;;;;;;5000904;28;20095;-86
2021/12/26 08:41:10;;;;;;;3.45;2.55;;;;;;;;;;5016581;28;20445;-86
2021/12/26 08:43:36;;;;;;;3.97;2.80;;;;;;;;;;5034465;28;20037;-87
2021/12/26 08:46:02;;;;;;;3.47;2.85;;;;;;;;;;5016432;28;20516;-87
2021/12/26 08:48:29;;;;;;;4.93;3.17;;;;;;;;;;5034223;28;20041;-91
2021/12/26 08:50:56;;;;;;;4.18;3.28;;;;;;;;;;5017619;28;20045;-88
2021/12/26 08:53:28;;;;;;;4.03;3.10;;;;;;;;;;5017816;28;20041;-90
2021/12/26 08:55:54;;;;;;;6.85;3.63;;;;;;;;;;5000877;28;20050;-86
2021/12/26 08:58:21;;;;;;;4.88;3.65;;;;;;;;;;5002119;28;20045;-87
2021/12/26 09:00:47;;;;;;;5.38;3.67;;;;;;;;;;5001153;28;20045;-88
2021/12/26 09:03:13;;;;;;;5.28;3.83;;;;;;;;;;5016871;28;20133;-88
2021/12/26 09:05:42;;;;;;;9.48;5.70;;;;;;;;;;5000967;28;20052;-89
2021/12/26 09:08:10;;;;;;;9.85;4.50;;;;;;;;;;5017268;28;20099;-89
2021/12/26 09:10:38;;;;;;;5.25;4.22;;;;;;;;;;5000694;28;20498;-89
2021/12/26 09:13:07;;;;;;;4.82;3.60;;;;;;;;;;5001269;28;20046;-89
2021/12/26 09:15:34;;;;;;;3.10;2.80;;;;;;;;;;5000707;28;20076;-88
2021/12/26 09:18:00;;;;;;;4.43;3.25;;;;;;;;;;5000332;28;20052;-89
2021/12/26 09:20:27;;;;;;;6.97;4.65;;;;;;;;;;5018389;28;20512;-88
2021/12/26 09:22:56;;;;;;;11.30;6.18;;;;;;;;;;5001088;28;20088;-89
2021/12/26 09:25:26;;;;;;;6.40;5.40;;;;;;;;;;5000181;28;20038;-89
2021/12/26 09:27:52;;;;;;;6.22;3.78;;;;;;;;;;5000720;28;20485;-89
2021/12/26 09:30:18;;;;;;;4.82;3.85;;;;;;;;;;5000561;28;20037;-90
2021/12/26 09:32:44;;;;;;;5.70;3.55;;;;;;;;;;5016263;28;20628;-89
2021/12/26 09:35:10;;;;;;;4.05;3.38;;;;;;;;;;5000348;28;20498;-89
2021/12/26 09:37:36;;;;;;;7.55;3.13;;;;;;;;;;5000619;28;20041;-88
2021/12/26 09:40:04;;;;;;;5.78;3.83;;;;;;;;;;5000236;28;20047;-88
2021/12/26 09:42:30;;;;;;;6.15;3.88;;;;;;;;;;5000618;28;20049;-89
2021/12/26 09:44:58;;;;;;;4.28;3.53;;;;;;;;;;4999246;28;20045;-88
2021/12/26 09:47:24;;;;;;;4.82;4.00;;;;;;;;;;5016226;28;20045;-88
2021/12/26 09:49:50;;;;;;;5.50;3.63;;;;;;;;;;5000515;28;20481;-88
2021/12/26 09:52:16;;;;;;;5.72;3.15;;;;;;;;;;5017381;28;20048;-88
2021/12/26 09:54:43;;;;;;;4.82;3.92;;;;;;;;;;4999737;28;20112;-88
2021/12/26 09:57:09;;;;;;;5.05;3.35;;;;;;;;;;4999506;28;20046;-88
2021/12/26 09:59:37;;;;;;;7.22;3.63;;;;;;;;;;5000006;28;20041;-88
2021/12/26 10:02:08;;;;;;;7.35;3.80;;;;;;;;;;5015939;28;20136;-88
2021/12/26 10:04:35;;;;;;;3.92;3.53;;;;;;;;;;4998800;28;20048;-88
2021/12/26 10:07:03;;;;;;;4.03;2.97;;;;;;;;;;5017083;28;20406;-88
2021/12/26 10:09:29;;;;;;;4.78;3.60;;;;;;;;;;5002947;28;20045;-87
2021/12/26 10:11:57;;;;;;;3.45;3.13;;;;;;;;;;5010987;28;20140;-88
2021/12/26 10:14:25;;;;;;;5.88;3.95;;;;;;;;;;5026261;28;20044;-88
2021/12/26 10:16:59;;;;;;;3.85;3.40;;;;;;;;;;5024998;28;20136;-87
2021/12/26 10:19:26;;;;;;;4.57;2.97;;;;;;;;;;5034370;28;20044;-88
2021/12/26 10:21:57;;;;;;;9.63;3.67;;;;;;;;;;5031959;28;20048;-88
2021/12/26 10:24:28;;;;;;;5.80;3.75;;;;;;;;;;5025036;28;20128;-89
2021/12/26 10:26:55;;;;;;;3.72;3.33;;;;;;;;;;5023753;28;20107;-89
2021/12/26 10:29:34;;;;;;;3.72;3.35;;;;;;;;;;5022124;28;20040;-89
2021/12/26 10:32:29;;;;;;;;;;;;;;;;;;;;;
2021/12/26 10:34:56;;;;;;;5.80;3.38;;;;;;;;;;5038887;28;20041;-93
2021/12/26 10:37:32;;;;;;;5.47;3.75;;;;;;;;;;5023319;28;20091;-94
2021/12/26 10:39:59;;;;;;;6.93;3.67;;;;;;;;;;5023525;28;20052;-95
2021/12/26 10:42:29;;;;;;;5.63;3.80;;;;;;;;;;5024730;28;20087;-96
2021/12/26 10:44:57;;;;;;;4.85;3.97;;;;;;;;;;5023855;28;20040;-96
2021/12/26 10:47:29;;;;;;;4.68;3.78;;;;;;;;;;5044457;28;20049;-94
2021/12/26 10:49:56;;;;;;;9.77;3.58;;;;;;;;;;5068998;28;20045;-88
2021/12/26 10:52:46;;;;;;;4.95;3.60;;;;;;;;;;5048192;28;20045;-88
2021/12/26 10:55:18;;;;;;;5.15;4.00;;;;;;;;;;5051048;28;20052;-88
2021/12/26 10:57:54;;;;;;;6.80;3.53;;;;;;;;;;5077269;28;20060;-88
2021/12/26 11:00:25;;;;;;;4.32;3.58;;;;;;;;;;5079444;28;20037;-90
2021/12/26 11:02:52;;;;;;;5.50;4.03;;;;;;;;;;5045858;28;20049;-89
2021/12/26 11:05:22;;;;;;;8.35;3.55;;;;;;;;;;5079854;28;20040;-87
2021/12/26 11:07:55;;;;;;;4.18;3.10;;;;;;;;;;5054515;28;20132;-87
2021/12/26 11:10:41;;;;;;;7.93;3.97;;;;;;;;;;5070208;28;20045;-87
2021/12/26 11:13:18;;;;;;;8.23;3.60;;;;;;;;;;5061141;28;20073;-87
2021/12/26 11:15:46;;;;;;;6.32;4.70;;;;;;;;;;5057218;28;20060;-87
2021/12/26 11:18:13;;;;;;;3.83;2.60;;;;;;;;;;5015922;28;20048;-87
2021/12/26 11:20:41;;;;;;;4.75;3.22;;;;;;;;;;5032546;28;20108;-87
2021/12/26 11:23:11;;;;;;;3.60;3.10;;;;;;;;;;5020119;28;20038;-87
2021/12/26 11:25:41;;;;;;;3.78;3.13;;;;;;;;;;5003439;28;20084;-86
2021/12/26 11:28:07;;;;;;;5.70;3.42;;;;;;;;;;5038289;28;20462;-96
2021/12/26 11:30:33;;;;;;;6.10;3.30;;;;;;;;;;5037989;28;20046;-94
2021/12/26 11:33:00;;;;;;;7.72;3.63;;;;;;;;;;5020111;28;20045;-86
2021/12/26 11:35:28;;;;;;;6.75;3.45;;;;;;;;;;5019932;28;20041;-87
2021/12/26 11:37:54;;;;;;;5.10;3.35;;;;;;;;;;5020511;28;20121;-92
2021/12/26 11:40:21;;;;;;;3.65;3.33;;;;;;;;;;5037099;28;20049;-86
2021/12/26 11:42:50;;;;;;;6.78;3.05;;;;;;;;;;5019767;28;20045;-87
2021/12/26 11:45:22;;;;;;;5.82;3.78;;;;;;;;;;5014918;28;20053;-86
2021/12/26 11:48:00;;;;;;;4.75;3.38;;;;;;;;;;5020409;28;20114;-87
2021/12/26 11:50:45;;;;;;;8.25;4.15;;;;;;;;;;5016282;28;20068;-87
2021/12/26 11:53:26;;;;;;;4.80;3.08;;;;;;;;;;5035979;28;20069;-87
2021/12/26 11:56:16;;;;;;;4.57;3.42;;;;;;;;;;5016144;28;20052;-88
2021/12/26 11:59:01;;;;;;;3.75;3.38;;;;;;;;;;5024267;28;20057;-90
2021/12/26 12:01:27;;;;;;;3.90;3.22;;;;;;;;;;5018516;28;20460;-89
2021/12/26 12:04:12;;;;;;;4.80;3.67;;;;;;;;;;5001441;28;20580;-89
2021/12/26 12:06:38;;;;;;;5.00;3.88;;;;;;;;;;5017265;28;20051;-91
2021/12/26 12:09:23;;;;;;;6.03;3.63;;;-1.40;99.90;;;;;;5016942;28;20107;-90
2021/12/26 12:12:09;;;;;;;6.03;3.17;;;-1.30;99.90;;;;;;5019712;28;20057;-91
2021/12/26 12:14:55;;;;;;;7.18;3.97;;;;;;;;;;5017959;28;20524;-91
2021/12/26 12:17:31;;;;;;;3.28;2.97;;;;;;;;;;5002232;28;20049;-91
2021/12/26 12:20:12;;;;;;;5.25;3.35;;;;;;;;;;5002427;28;20046;-90
2021/12/26 12:22:58;;;;;;;4.10;3.42;;;;;;;;;;5019474;28;20045;-92
2021/12/26 12:25:38;;;;;;;4.22;3.33;;;;;;;;;;5001676;28;20501;-92
2021/12/26 12:28:05;;;;;;;4.88;3.97;;;;;;;;;;5001894;28;20436;-92
2021/12/26 12:30:31;;;;;;;6.50;3.92;;;;;;;;;;5002184;28;20041;-93
2021/12/26 12:33:21;;;;;;;7.10;4.05;;;-1.00;99.90;;;;;;5003321;28;20437;-92
2021/12/26 12:35:53;;;;;;;4.45;3.33;;;;;;;;;;5018801;28;20046;-93
2021/12/26 12:38:30;;;;;;;5.40;3.67;;;;;;;;;;5003246;28;20056;-93
2021/12/26 12:40:57;;;;;;;10.10;4.18;;;;;;;;;;5018388;28;20371;-93
2021/12/26 12:43:24;;;;;;;7.60;3.65;;;;;;;;;;5002935;28;20436;-93
2021/12/26 12:45:54;;;;;;;4.72;3.88;;;;;;;;;;5003054;28;20430;-91
2021/12/26 12:48:31;;;;;;;6.15;3.78;;;;;;;;;;5018108;28;20490;-92
2021/12/26 12:50:58;;;;;;;5.18;3.45;;;;;;;;;;5003610;28;20095;-93
2021/12/26 12:53:44;;;;;;;6.15;3.88;;;;;;;;;;5003697;28;20046;-93
2021/12/26 12:56:44;;;;;;;5.85;3.05;;;;;;;;;;5004269;28;20524;-93
2021/12/26 12:59:13;;;;;;;8.20;3.55;;;;;;;;;;4999002;28;20141;-92
2021/12/26 13:01:42;;;;;;;7.57;4.05;;;;;;;;;;5003425;28;20056;-93
2021/12/26 13:04:09;;;;;;;6.22;2.80;;;;;;;;;;5003453;28;20105;-93
2021/12/26 13:06:35;;;;;;;3.97;3.58;;;;;;;;;;5002913;28;20401;-92
2021/12/26 13:09:02;;;;;;;8.07;3.85;;;;;;;;;;5003929;28;20081;-93
2021/12/26 13:11:30;;;;;;;4.95;3.15;;;;;;;;;;5003649;28;20045;-92
2021/12/26 13:14:00;;;;;;;4.10;3.47;;;;;;;;;;5003128;28;20496;-92
2021/12/26 13:16:30;;;;;;;4.22;3.13;;;;;;;;;;5003291;28;20037;-92
2021/12/26 13:19:03;;;;;;;6.70;4.00;;;;;;;;;;5003017;28;20042;-93
2021/12/26 13:21:29;;;;;;;4.57;3.38;;;;;;;;;;5001947;28;20066;-93
2021/12/26 13:23:55;;;;;;;6.45;4.05;;;;;;;;;;5001701;28;20052;-91
2021/12/26 13:26:21;;;;;;;7.53;4.15;;;;;;;;;;5001688;28;20041;-92
2021/12/26 13:28:48;;;;;;;6.80;4.13;;;;;;;;;;5002389;28;20065;-92
2021/12/26 13:31:16;;;;;;;4.93;3.58;;;;;;;;;;5001955;28;20042;-92
2021/12/26 13:33:51;;;;;;;11.32;4.40;;;;;;;;;;5002379;28;20114;-92
2021/12/26 13:36:20;;;;;;;6.22;3.90;;;;;;;;;;5002055;28;20037;-91
2021/12/26 13:38:47;;;;;;;6.47;4.03;;;;;;;;;;5002408;28;20136;-91
2021/12/26 13:41:15;;;;;;;6.45;4.00;;;;;;;;;;5001848;28;20052;-91
2021/12/26 13:43:42;;;;;;;7.68;3.92;;;;;;;;;;5002888;28;20053;-91
2021/12/26 13:46:09;;;;;;;6.28;3.75;;;;;;;;;;5005589;28;20072;-92
2021/12/26 13:48:36;;;;;;;5.68;4.05;;;;;;;;;;5005647;28;20088;-91
2021/12/26 13:51:19;;;;;;;5.78;3.70;;;;;;;;;;5007788;28;20133;-91
2021/12/26 13:53:46;;;;;;;8.88;4.05;;;;;;;;;;5013024;28;20081;-91
2021/12/26 13:56:12;;;;;;;6.32;4.18;;;;;;;;;;5016155;28;20045;-92
2021/12/26 13:58:39;;;;;;;6.47;4.32;;;;;;;;;;5009088;28;20049;-91
2021/12/26 14:01:06;;;;;;;7.20;4.32;;;;;;;;;;5008019;28;20041;-91
2021/12/26 14:03:32;;;;;;;4.47;3.63;;;;;;;;;;5009936;28;20095;-90
2021/12/26 14:05:58;;;;;;;9.40;3.65;;;;;;;;;;5010626;28;20068;-90
2021/12/26 14:08:27;;;;;;;6.18;3.70;;;;;;;;;;5004746;28;20046;-90
2021/12/26 14:11:07;;;;;;;6.70;4.45;;;;;;;;;;5003767;28;20049;-91
2021/12/26 14:13:44;;;;;;;9.18;5.50;;;;;;;;;;5003169;28;20089;-91
2021/12/26 14:16:10;;;;;;;5.95;3.80;;;;;;;;;;5004541;28;20053;-91
2021/12/26 14:18:38;;;;;;;5.05;3.95;;;;;;;;;;5004491;28;20473;-91
2021/12/26 14:21:15;;;;;;;6.55;4.80;;;;;;;;;;5003865;28;20042;-91
2021/12/26 14:23:51;;;;;;;7.18;4.35;;;;;;;;;;5003612;28;20056;-91
2021/12/26 14:26:27;;;;;;;9.00;5.10;;;;;;;;;;5004476;28;20405;-91
2021/12/26 14:28:55;;;;;;;8.55;5.15;;;;;;;;;;5004691;28;20038;-91
2021/12/26 14:31:33;;;;;;;8.07;5.82;;;;;;;;;;5004289;28;20132;-91
2021/12/26 14:34:00;;;;;;;8.07;4.60;;;;;;;;;;5003515;28;20114;-91
2021/12/26 14:36:27;;;;;;;4.15;2.88;;;;;;;;;;5003696;28;20045;-91
2021/12/26 14:39:02;;;;;;;4.85;3.40;;;;;;;;;;5003103;28;20048;-90
2021/12/26 14:41:36;;;;;;;4.60;3.42;;;;;;;;;;5003555;28;20052;-91
2021/12/26 14:44:16;;;;;;;9.50;5.13;;;;;;;;;;5003283;28;20049;-91
2021/12/26 14:46:42;;;;;;;6.47;4.53;;;;;;;;;;5003421;28;20048;-90
2021/12/26 14:49:13;;;;;;;6.65;4.43;;;;;;;;;;5003413;28;20053;-91
2021/12/26 14:51:40;;;;;;;6.35;4.97;;;;;;;;;;5004470;28;20041;-91
2021/12/26 14:54:08;;;;;;;11.32;5.90;;;;;;;;;;5002734;28;20572;-90
2021/12/26 14:56:52;;;;;;;11.38;7.90;;;;;;;;;;5004140;28;20466;-91
2021/12/26 14:59:26;;;;;;;17.13;8.00;;;;;;;;;;5003746;28;20042;-91
2021/12/26 15:02:04;;;;;;;11.27;7.90;;;;;;;;;;5019806;28;20441;-91
2021/12/26 15:04:31;;;;;;;16.88;7.20;;;;;;;;;;5007827;28;20045;-91
2021/12/26 15:06:57;;;;;;;4.63;4.03;;;;;;;;;;5004794;28;20045;-91
2021/12/26 15:09:43;;;;;;;9.48;5.55;;;-1.10;99.90;;;;;;5004168;28;20132;-90